AirNav   Everest Fuels
 
 827 users online  

KAGR MacDill Air Force Base Auxiliary Field
Avon Park, Florida, USA

GOING TO AVON PARK?


FAA INFORMATION EFFECTIVE 10 SEPTEMBER 2020

Location

FAA Identifier: AGR
Lat/Long: 27-38-52.2600N 081-20-29.6300W
27-38.871000N 081-20.493833W
27.6478500,-81.3415639
(estimated)
Elevation: 68 ft. / 20.7 m (surveyed)
Variation: 03W (1985)
From city: 8 miles NE of AVON PARK, FL
Time zone: UTC -4 (UTC -5 during Standard Time)
Zip code: 33825

Airport Operations

Airport use: Private use. Permission required prior to landing
Activation date: 02/1944
Control tower: no
ARTCC: MIAMI CENTER
FSS: SAINT PETERSBURG FLIGHT SERVICE STATION
FSS ST PETERSBURG PIE VIA AVON PARK AFR NOTAM PIE.
NOTAMs facility: MCF (NOTAM-D service available)
Attendance: CONTINUOUS
OFFICIAL BUSINESS ONLY. PRIOR APPROVAL REQUIRED FM DEPUTY CDR FOR OPERN, 1ST TFW, MACDILL AFB, FL OR FROM CDR, 1ST CSG, AVON PARK AF RNG, FL.
Wind indicator: yes
Segmented circle: no
Lights: ACTVT RWY LGTS CALL 813-453-6641.
Beacon: white-green (lighted land airport)
ACTVT ROTG BCN CALL 813-453-6641.

Airport Communications

WX AWOS-3 at AVO (11 nm W): 118.725 (863-453-4223)
WX AWOS-3 at SEF (11 nm S): 119.475 (863-655-6424)

Airport Services

Airframe service: NONE
Powerplant service: NONE
Bottled oxygen: NONE
Bulk oxygen: NONE

Runway Information

Runway 5/23

Dimensions: 8000 x 150 ft. / 2438 x 46 m
Surface: asphalt
Runway edge lights: medium intensity
RUNWAY 5  RUNWAY 23
Latitude: 27-38.448667N27-39.293350N
Longitude: 081-21.063667W081-19.924168W
Elevation: 65.1 ft.67.3 ft.
Traffic pattern: leftleft
Runway heading: 053 magnetic, 050 true233 magnetic, 230 true
Markings: nonprecision, in good conditionnonprecision, in good condition
Visual slope indicator: 4-light PAPI on left (3.00 degrees glide path)4-light PAPI on left (3.00 degrees glide path)
Runway end identifier lights: nono
Touchdown point: yes, no lightsyes, no lights

Airport Ownership and Management from official FAA records

Ownership: U.S. Air Force
Owner: U.S. AIR FORCE
1ST COMBAT SPT GP(TAC)
AVON PARK AF RNG, FL 33825
Manager: CHIEF AIRFIELD MANAGEMENT
1ST COMBAT SPT GP(TAC)
AVON PARK AF RNG, FL 33825
Phone 813-453-6641

Additional Remarks

E60-23 BAK-12B.
RSTD: CLSD TO ACFT OVER 150,000 LB.
DOES NOT APPEAR ON AIRNAV / NOT IN CHART SUPPLEMENT

Instrument Procedures

There are no published instrument procedures at KAGR.

Some nearby airports with instrument procedures:

KAVO - Avon Park Executive Airport (11 nm W)
KSEF - Sebring Regional Airport (11 nm S)
X07 - Lake Wales Municipal Airport (21 nm NW)
KBOW - Bartow Executive Airport (29 nm NW)
KCHN - Wauchula Municipal Airport (30 nm W)
 
Loc | Ops | Rwys | IFR | FBO | Links
Com | Nav | Svcs | Stats | Notes


 
Area around KAGR (MacDill Air Force Base Auxiliary Field)
 
Road maps at: MapQuest Bing Google
 
Aerial photo
WARNING: Photo may not be current or correct
Aerial photo of KAGR (MacDill Air Force Base Auxiliary Field)
Do you have a better or more recent aerial photo of MacDill Air Force Base Auxiliary Field that you would like to share? If so, please send us your photo.

 
Sectional chart

 
Airport distance calculator
Flying to MacDill Air Force Base Auxiliary Field? Find the distance to fly.

From to KAGR

Sunrise and sunset
Times for 18-Sep-2020
 Local
(UTC-4)
 Zulu
(UTC)
Morning civil twilight06:5010:50
Sunrise07:1311:13
Sunset19:2523:25
Evening civil twilight19:4823:48

Current date and time
Zulu (UTC)  19-Sep-2020 03:57:55
Local (UTC-4)  18-Sep-2020 23:57:55
 
METAR
KAGR 190258Z AUTO 33003KT 10SM CLR M A2992 RMK AO2 SLPNO 51013 TSNO $
KSEF 
11nm S 
190335Z AUTO 30005KT 10SM CLR 26/24 A2993 RMK AO2 T02600240
TAF
KISM 
38nm N 
181735Z 1818/1918 27010KT P6SM VCSH SCT035 BKN050 BKN250 FM182100 30009KT P6SM SCT045 SCT250 FM190000 32007KT P6SM SCT040 SCT250 FM191500 04006KT P6SM FEW015 SCT025 BKN035
KLAL 
41nm NW 
181732Z 1818/1918 26008KT P6SM SCT030 BKN130 FM182100 28009KT P6SM SCT040 SCT130 FM190300 VRB04KT P6SM SCT200 FM191700 VRB04KT P6SM FEW050
KMLB 
46nm NE 
182208Z 1822/1918 26008KT P6SM VCSH SCT020 BKN090 TEMPO 1822/1823 5SM SHRA FM190000 31008KT P6SM SCT035 SCT250 FM190400 34007KT P6SM SCT030 SCT250 FM191500 02008KT P6SM FEW015 SCT025 BKN035
KMCO 
46nm N 
182105Z 1821/1924 30009KT P6SM FEW050 SCT080 SCT250 FM190000 33007KT P6SM SCT040 SCT250 FM190900 35005KT P6SM FEW010 SCT020 FM191500 02006KT P6SM FEW015 SCT025 BKN035 FM192100 03014KT P6SM VCSH SCT020 BKN030
NOTAMs
Click for the latest NOTAMs
NOTAMs are issued by the DoD/FAA and will open in a separate window not controlled by AirNav.

 

 
 

Would you like to see your business listed on this page?

 If your business provides an interesting product or service to pilots, flight crews, aircraft, or users of the MacDill Air Force Base Auxiliary Field, you should consider listing it here.  To start the listing process, click on the button below
 
Add a business
 

Other Pages about MacDill Air Force Base Auxiliary Field

Update a link
 
Copyright © AirNav, LLC. All rights reserved. Privacy Policy  Contact